createdAt,value
2017-12-11T00:02:28.114Z,5.50
2017-12-11T00:04:56.382Z,5.40
2017-12-11T00:07:24.655Z,5.40
2017-12-11T00:09:53.656Z,5.40
2017-12-11T00:12:22.661Z,5.40
2017-12-11T00:14:50.890Z,5.40
2017-12-11T00:17:19.131Z,5.40
2017-12-11T00:19:47.367Z,5.40
2017-12-11T00:22:15.577Z,5.40
2017-12-11T00:24:43.800Z,5.40
2017-12-11T00:27:12.039Z,5.40
2017-12-11T00:29:40.251Z,5.40
2017-12-11T00:32:08.458Z,5.40
2017-12-11T00:34:36.713Z,5.40
2017-12-11T00:37:05.708Z,5.40
2017-12-11T00:39:33.922Z,5.40
2017-12-11T00:42:02.163Z,5.40
2017-12-11T00:44:31.147Z,5.40
2017-12-11T00:46:59.410Z,5.30
2017-12-11T00:49:27.632Z,5.40
2017-12-11T00:51:55.870Z,5.40
2017-12-11T00:54:24.090Z,5.40
2017-12-11T00:56:52.317Z,5.40
2017-12-11T00:59:21.328Z,5.50
2017-12-11T01:01:50.333Z,5.50
2017-12-11T01:04:18.561Z,5.40
2017-12-11T01:06:47.570Z,5.40
2017-12-11T01:09:16.572Z,5.40
2017-12-11T01:11:45.574Z,5.40
2017-12-11T01:14:14.561Z,5.40
2017-12-11T01:16:42.770Z,5.30
2017-12-11T01:19:10.994Z,5.40
2017-12-11T01:21:39.205Z,5.30
2017-12-11T01:24:07.441Z,5.30
2017-12-11T01:26:35.676Z,5.30
2017-12-11T01:29:03.910Z,5.20
2017-12-11T01:31:32.967Z,5.20
2017-12-11T01:34:01.211Z,5.20
2017-12-11T01:36:29.563Z,5.20
2017-12-11T01:38:57.794Z,5.10
2017-12-11T01:41:26.006Z,5.10
2017-12-11T01:43:54.998Z,5.00
2017-12-11T01:46:23.976Z,4.90
2017-12-11T01:48:52.235Z,4.90
2017-12-11T01:51:20.459Z,5.00
2017-12-11T01:53:49.432Z,4.90
2017-12-11T01:56:17.682Z,4.80
2017-12-11T01:58:45.905Z,4.80
2017-12-11T02:01:14.215Z,4.80
2017-12-11T02:03:42.438Z,4.70
2017-12-11T02:06:10.688Z,4.70
2017-12-11T02:08:39.704Z,4.70
2017-12-11T02:11:07.959Z,4.60
2017-12-11T02:13:36.954Z,4.60
2017-12-11T02:16:05.958Z,4.60
2017-12-11T02:18:34.228Z,4.50
2017-12-11T02:21:02.438Z,4.50
2017-12-11T02:23:30.683Z,4.50
2017-12-11T02:25:58.920Z,4.40
2017-12-11T02:28:27.142Z,4.20
2017-12-11T02:30:55.361Z,4.10
2017-12-11T02:33:23.594Z,4.00
2017-12-11T02:35:51.830Z,3.90
2017-12-11T02:38:20.083Z,3.80
2017-12-11T02:40:48.309Z,3.80
2017-12-11T02:43:16.546Z,3.70
2017-12-11T02:45:44.787Z,3.70
2017-12-11T02:48:13.024Z,3.70
2017-12-11T02:50:41.292Z,3.60
2017-12-11T02:53:10.285Z,3.50
2017-12-11T02:55:39.282Z,3.50
2017-12-11T02:58:08.276Z,3.50
2017-12-11T03:00:37.292Z,3.50
2017-12-11T03:03:06.370Z,3.50
2017-12-11T03:05:34.628Z,3.40
2017-12-11T03:08:03.628Z,3.50
2017-12-11T03:10:32.654Z,3.40
2017-12-11T03:13:00.884Z,3.40
2017-12-11T03:15:29.088Z,3.40
2017-12-11T03:17:57.330Z,3.40
2017-12-11T03:20:26.337Z,3.30
2017-12-11T03:22:55.352Z,3.20
2017-12-11T03:25:23.577Z,3.20
2017-12-11T03:27:52.092Z,3.20
2017-12-11T03:30:20.336Z,3.10
2017-12-11T03:32:48.549Z,3.10
2017-12-11T03:35:16.786Z,3.10
2017-12-11T03:37:45.010Z,3.10
2017-12-11T03:40:13.260Z,3.10
2017-12-11T03:42:42.262Z,3.10
2017-12-11T03:45:10.857Z,3.00
2017-12-11T03:47:39.037Z,3.00
2017-12-11T03:50:07.285Z,3.00
2017-12-11T03:52:36.301Z,3.00
2017-12-11T03:55:04.549Z,2.90
2017-12-11T03:57:33.542Z,2.90
2017-12-11T04:00:02.567Z,2.90
2017-12-11T04:02:30.873Z,2.90
2017-12-11T04:04:59.065Z,2.90
2017-12-11T04:07:28.075Z,2.80
2017-12-11T04:09:57.086Z,2.80
2017-12-11T04:12:25.313Z,2.80
2017-12-11T04:14:53.566Z,2.80
2017-12-11T04:17:21.808Z,2.80
2017-12-11T04:19:50.026Z,2.70
2017-12-11T04:22:18.274Z,2.70
2017-12-11T04:24:46.504Z,2.60
2017-12-11T04:27:14.779Z,2.60
2017-12-11T04:29:43.794Z,2.50
2017-12-11T04:32:12.038Z,2.50
2017-12-11T04:34:40.302Z,2.50
2017-12-11T04:37:08.545Z,2.50
2017-12-11T04:39:36.787Z,2.40
2017-12-11T04:42:05.780Z,2.40
2017-12-11T04:44:34.794Z,2.40
2017-12-11T04:47:03.033Z,2.30
2017-12-11T04:49:31.279Z,2.40
2017-12-11T04:51:59.515Z,2.40
2017-12-11T04:54:28.515Z,2.40
2017-12-11T04:56:56.744Z,2.40
2017-12-11T04:59:24.976Z,2.40
2017-12-11T05:01:53.226Z,2.40
2017-12-11T05:04:21.485Z,2.40
2017-12-11T05:06:50.494Z,2.30
2017-12-11T05:09:18.729Z,2.20
2017-12-11T05:11:46.988Z,2.20
2017-12-11T05:14:16.017Z,2.30
2017-12-11T05:16:45.042Z,2.30
2017-12-11T05:19:13.301Z,2.20
2017-12-11T05:21:41.538Z,2.30
2017-12-11T05:24:09.795Z,2.30
2017-12-11T05:26:38.030Z,2.20
2017-12-11T05:29:06.274Z,2.20
2017-12-11T05:31:34.880Z,2.20
2017-12-11T05:34:03.882Z,2.30
2017-12-11T05:36:32.451Z,2.20
2017-12-11T05:39:00.669Z,2.30
2017-12-11T05:41:28.906Z,2.20
2017-12-11T05:43:57.894Z,2.20
2017-12-11T05:46:26.187Z,2.20
2017-12-11T05:48:55.477Z,2.30
2017-12-11T05:51:23.682Z,2.20
2017-12-11T05:53:51.930Z,2.30
2017-12-11T05:56:20.154Z,2.20
2017-12-11T05:58:48.384Z,2.20
2017-12-11T06:01:16.747Z,2.10
2017-12-11T06:03:44.931Z,2.10
2017-12-11T06:06:13.206Z,2.20
2017-12-11T06:08:42.266Z,2.10
2017-12-11T06:11:11.298Z,2.10
2017-12-11T06:13:40.586Z,2.00
2017-12-11T06:16:08.822Z,1.90
2017-12-11T06:18:37.055Z,2.00
2017-12-11T06:21:05.277Z,1.90
2017-12-11T06:23:33.522Z,1.90
2017-12-11T06:26:01.746Z,1.80
2017-12-11T06:28:29.983Z,1.80
2017-12-11T06:30:58.206Z,1.80
2017-12-11T06:33:26.454Z,1.90
2017-12-11T06:35:55.487Z,1.90
2017-12-11T06:38:23.748Z,1.90
2017-12-11T06:40:52.760Z,2.00
2017-12-11T06:43:21.047Z,1.90
2017-12-11T06:45:49.398Z,2.00
2017-12-11T06:48:17.619Z,2.00
2017-12-11T06:50:45.884Z,2.00
2017-12-11T06:53:14.208Z,2.10
2017-12-11T06:55:43.235Z,2.00
2017-12-11T06:58:12.222Z,2.10
2017-12-11T07:00:40.458Z,2.00
2017-12-11T07:03:08.754Z,2.10
2017-12-11T07:05:37.734Z,2.10
2017-12-11T07:08:07.049Z,2.10
2017-12-11T07:10:35.292Z,2.00
2017-12-11T07:13:03.554Z,2.10
2017-12-11T07:15:31.831Z,2.10
2017-12-11T07:18:00.359Z,2.10
2017-12-11T07:20:29.351Z,2.10
2017-12-11T07:22:57.594Z,2.10
2017-12-11T07:25:25.865Z,2.10
2017-12-11T07:27:54.109Z,2.10
2017-12-11T07:30:22.340Z,2.10
2017-12-11T07:32:51.367Z,2.20
2017-12-11T07:35:19.588Z,2.10
2017-12-11T07:37:47.866Z,2.20
2017-12-11T07:40:16.106Z,2.20
2017-12-11T07:42:44.441Z,2.30
2017-12-11T07:45:12.674Z,2.40
2017-12-11T07:47:40.934Z,2.30
2017-12-11T07:50:09.157Z,2.40
2017-12-11T07:52:38.296Z,2.40
2017-12-11T07:55:06.659Z,2.40
2017-12-11T07:57:34.916Z,2.40
2017-12-11T08:00:03.903Z,2.50
2017-12-11T08:02:32.912Z,2.50
2017-12-11T08:05:01.902Z,2.60
2017-12-11T08:07:30.902Z,2.60
2017-12-11T08:09:59.152Z,2.60
2017-12-11T08:12:27.361Z,2.60
2017-12-11T08:14:55.611Z,2.70
2017-12-11T08:17:24.600Z,2.70
2017-12-11T08:19:53.614Z,2.70
2017-12-11T08:22:21.852Z,2.70
2017-12-11T08:24:50.063Z,2.80
2017-12-11T08:27:18.315Z,2.80
2017-12-11T08:29:47.316Z,2.80
2017-12-11T08:32:15.556Z,2.70
2017-12-11T08:34:43.791Z,2.70
2017-12-11T08:37:12.041Z,2.80
2017-12-11T08:39:41.027Z,3.00
2017-12-11T08:42:10.034Z,3.10
2017-12-11T08:44:39.042Z,3.00
2017-12-11T08:47:07.285Z,3.00
2017-12-11T08:49:35.507Z,3.00
2017-12-11T08:52:03.742Z,3.00
2017-12-11T08:54:32.794Z,3.00
2017-12-11T08:57:01.054Z,3.00
2017-12-11T08:59:29.285Z,3.10
2017-12-11T09:01:58.261Z,3.20
2017-12-11T09:04:26.518Z,3.10
2017-12-11T09:06:54.730Z,3.20
2017-12-11T09:09:23.723Z,3.30
2017-12-11T09:11:52.750Z,3.40
2017-12-11T09:14:20.954Z,3.30
2017-12-11T09:16:49.188Z,3.40
2017-12-11T09:19:17.402Z,3.50
2017-12-11T09:21:46.435Z,3.60
2017-12-11T09:24:14.651Z,3.60
2017-12-11T09:26:42.894Z,3.70
2017-12-11T09:29:11.113Z,3.60
2017-12-11T09:31:39.359Z,3.60
2017-12-11T09:34:07.602Z,3.60
2017-12-11T09:36:36.590Z,3.70
2017-12-11T09:39:05.587Z,3.70
2017-12-11T09:41:34.574Z,3.70
2017-12-11T09:44:03.575Z,3.80
2017-12-11T09:46:32.555Z,3.90
2017-12-11T09:49:00.904Z,3.90
2017-12-11T09:51:29.133Z,3.90
2017-12-11T09:53:57.390Z,4.00
2017-12-11T09:56:25.638Z,4.00
2017-12-11T09:58:53.868Z,4.00
2017-12-11T10:01:22.127Z,4.00
2017-12-11T10:03:50.365Z,4.00
2017-12-11T10:06:19.394Z,4.00
2017-12-11T10:08:47.619Z,4.00
2017-12-11T10:11:15.858Z,4.00
2017-12-11T10:13:44.921Z,4.10
2017-12-11T10:16:13.139Z,4.00
2017-12-11T10:18:41.684Z,4.00
2017-12-11T10:21:10.670Z,3.90
2017-12-11T10:23:38.879Z,3.90
2017-12-11T10:26:07.103Z,3.80
2017-12-11T10:28:35.408Z,3.80
2017-12-11T10:31:04.411Z,3.80
2017-12-11T10:33:32.644Z,3.80
2017-12-11T10:36:00.947Z,3.90
2017-12-11T10:38:29.148Z,4.00
2017-12-11T10:40:57.384Z,4.00
2017-12-11T10:43:26.400Z,4.00
2017-12-11T10:45:54.628Z,4.00
2017-12-11T10:48:22.910Z,4.10
2017-12-11T10:50:51.114Z,4.10
2017-12-11T10:53:19.362Z,4.10
2017-12-11T10:55:47.583Z,4.10
2017-12-11T10:58:15.837Z,4.00
2017-12-11T11:00:44.115Z,4.00
2017-12-11T11:03:13.118Z,4.10
2017-12-11T11:05:41.346Z,4.00
2017-12-11T11:08:09.575Z,4.00
2017-12-11T11:10:38.027Z,4.00
2017-12-11T11:13:07.048Z,3.90
2017-12-11T11:15:35.289Z,3.90
2017-12-11T11:18:03.771Z,3.90
2017-12-11T11:20:32.031Z,3.90
2017-12-11T11:23:00.254Z,3.90
2017-12-11T11:25:28.481Z,3.80
2017-12-11T11:27:57.507Z,3.70
2017-12-11T11:30:26.492Z,3.60
2017-12-11T11:32:54.718Z,3.60
2017-12-11T11:35:22.973Z,3.60
2017-12-11T11:37:51.200Z,3.50
2017-12-11T11:40:19.450Z,3.50
2017-12-11T11:42:47.655Z,3.50
2017-12-11T11:45:16.650Z,3.50
2017-12-11T11:47:45.959Z,3.40
2017-12-11T11:50:14.942Z,3.40
2017-12-11T11:52:43.183Z,3.40
2017-12-11T11:55:12.215Z,3.30
2017-12-11T11:57:41.212Z,3.20
2017-12-11T12:00:10.210Z,3.10
2017-12-11T12:02:38.453Z,3.10
2017-12-11T12:05:06.675Z,3.10
2017-12-11T12:07:34.918Z,3.10
2017-12-11T12:10:03.901Z,2.90
2017-12-11T12:12:33.215Z,2.90
2017-12-11T12:15:02.240Z,2.80
2017-12-11T12:17:31.212Z,2.80
2017-12-11T12:19:59.463Z,2.70
2017-12-11T12:22:28.489Z,2.70
2017-12-11T12:24:56.782Z,2.70
2017-12-11T12:27:25.012Z,2.70
2017-12-11T12:29:54.006Z,2.50
2017-12-11T12:32:22.275Z,2.50
2017-12-11T12:34:51.281Z,2.40
2017-12-11T12:37:20.267Z,2.40
2017-12-11T12:39:49.286Z,2.40
2017-12-11T12:42:17.519Z,2.30
2017-12-11T12:44:45.745Z,2.40
2017-12-11T12:47:13.963Z,2.40
2017-12-11T12:49:43.180Z,2.30
2017-12-11T12:52:11.389Z,2.30
2017-12-11T12:54:40.402Z,2.30
2017-12-11T12:57:08.630Z,2.20
2017-12-11T12:59:36.863Z,2.30
2017-12-11T13:02:05.114Z,2.30
2017-12-11T13:04:33.316Z,2.20
2017-12-11T13:07:01.550Z,2.20
2017-12-11T13:09:29.776Z,2.20
2017-12-11T13:11:57.999Z,2.20
2017-12-11T13:14:26.233Z,2.10
2017-12-11T13:16:54.474Z,2.10
2017-12-11T13:19:22.699Z,2.10
2017-12-11T13:21:51.694Z,2.10
2017-12-11T13:24:20.698Z,2.10
2017-12-11T13:26:48.925Z,2.00
2017-12-11T13:29:17.171Z,2.00
2017-12-11T13:31:45.390Z,2.00
2017-12-11T13:34:14.408Z,1.90
2017-12-11T13:36:42.633Z,1.90
2017-12-11T13:39:11.770Z,1.80
2017-12-11T13:41:39.992Z,1.80
2017-12-11T13:44:08.243Z,1.80
2017-12-11T13:46:36.486Z,1.80
2017-12-11T13:49:04.737Z,1.80
2017-12-11T13:51:33.041Z,1.80
2017-12-11T13:54:01.317Z,1.80
2017-12-11T13:56:29.514Z,1.80
2017-12-11T13:58:57.734Z,1.80
2017-12-11T14:01:26.773Z,1.80
2017-12-11T14:03:55.003Z,1.80
2017-12-11T14:06:23.248Z,1.80
2017-12-11T14:08:51.460Z,1.80
2017-12-11T14:11:19.675Z,1.80
2017-12-11T14:13:47.902Z,1.80
2017-12-11T14:16:16.315Z,1.80
2017-12-11T14:18:45.325Z,1.90
2017-12-11T14:21:14.287Z,2.00
2017-12-11T14:23:43.303Z,2.00
2017-12-11T14:26:11.527Z,2.00
2017-12-11T14:28:39.757Z,1.90
2017-12-11T14:31:07.972Z,1.90
2017-12-11T14:33:36.490Z,1.90
2017-12-11T14:36:04.699Z,1.90
2017-12-11T14:38:32.939Z,1.90
2017-12-11T14:41:01.924Z,2.00
2017-12-11T14:43:30.157Z,2.00
2017-12-11T14:45:58.383Z,2.10
2017-12-11T14:48:27.782Z,2.10
2017-12-11T14:50:56.673Z,2.20
2017-12-11T14:53:26.075Z,2.40
2017-12-11T14:55:55.066Z,2.40
2017-12-11T14:58:23.287Z,2.30
2017-12-11T15:00:51.513Z,2.40
2017-12-11T15:03:20.528Z,2.40
2017-12-11T15:05:48.743Z,2.40
2017-12-11T15:08:17.262Z,2.40
2017-12-11T15:10:46.259Z,2.40
2017-12-11T15:13:14.479Z,2.30
2017-12-11T15:15:42.694Z,2.40
2017-12-11T15:18:11.682Z,2.40
2017-12-11T15:20:39.975Z,2.30
2017-12-11T15:23:08.184Z,2.40
2017-12-11T15:25:36.402Z,2.40
2017-12-11T15:28:05.418Z,2.50
2017-12-11T15:30:34.711Z,2.40
2017-12-11T15:33:03.705Z,2.50
2017-12-11T15:35:31.958Z,2.40
2017-12-11T15:38:00.193Z,2.60
2017-12-11T15:40:28.426Z,2.60
2017-12-11T15:42:57.426Z,2.80
2017-12-11T15:45:26.415Z,2.90
2017-12-11T15:47:54.643Z,2.80
2017-12-11T15:50:22.874Z,2.90
2017-12-11T15:52:51.114Z,2.90
2017-12-11T15:55:19.383Z,2.90
2017-12-11T15:57:47.560Z,2.80
2017-12-11T16:00:15.870Z,2.80
2017-12-11T16:02:44.058Z,2.70
2017-12-11T16:05:12.294Z,2.70
2017-12-11T16:07:41.341Z,2.60
2017-12-11T16:10:09.576Z,2.60
2017-12-11T16:12:37.799Z,2.60
2017-12-11T16:15:06.336Z,2.60
2017-12-11T16:17:35.330Z,2.60
2017-12-11T16:20:04.310Z,2.60
2017-12-11T16:22:33.314Z,2.50
2017-12-11T16:25:01.530Z,2.50
2017-12-11T16:27:29.784Z,2.50
2017-12-11T16:29:58.138Z,2.50
2017-12-11T16:32:27.134Z,2.40
2017-12-11T16:34:56.139Z,2.40
2017-12-11T16:37:25.328Z,2.40
2017-12-11T16:39:54.322Z,2.40
2017-12-11T16:42:23.694Z,2.40
2017-12-11T16:44:52.724Z,2.40
2017-12-11T16:47:20.951Z,2.40
2017-12-11T16:49:49.178Z,2.50
2017-12-11T16:52:17.418Z,2.50
2017-12-11T16:54:45.834Z,2.50
2017-12-11T16:57:14.053Z,2.50
2017-12-11T16:59:42.262Z,2.50
2017-12-11T17:02:11.267Z,2.50
2017-12-11T17:04:39.491Z,2.50
2017-12-11T17:07:08.011Z,2.50
2017-12-11T17:09:37.001Z,2.60
2017-12-11T17:12:05.999Z,2.60
2017-12-11T17:14:34.501Z,2.60
2017-12-11T17:17:03.774Z,2.80
2017-12-11T17:19:32.770Z,2.80
2017-12-11T17:22:01.778Z,2.80
2017-12-11T17:24:30.032Z,2.80
2017-12-11T17:26:59.022Z,2.90
2017-12-11T17:29:27.246Z,2.90
2017-12-11T17:31:55.452Z,3.00
2017-12-11T17:34:23.689Z,3.00
2017-12-11T17:36:52.033Z,3.10
2017-12-11T17:39:20.211Z,3.10
2017-12-11T17:41:49.194Z,3.10
2017-12-11T17:44:18.191Z,3.10
2017-12-11T17:46:47.221Z,3.10
2017-12-11T17:49:15.480Z,3.10
2017-12-11T17:51:43.704Z,3.10
2017-12-11T17:54:11.915Z,3.10
2017-12-11T17:56:40.899Z,3.10
2017-12-11T17:59:09.877Z,3.10
2017-12-11T18:01:38.131Z,3.10
2017-12-11T18:04:06.355Z,3.10
2017-12-11T18:06:34.598Z,3.20
2017-12-11T18:09:03.604Z,3.30
2017-12-11T18:11:32.600Z,3.30
2017-12-11T18:14:01.898Z,3.30
2017-12-11T18:16:30.891Z,3.30
2017-12-11T18:18:59.917Z,3.30
2017-12-11T18:21:28.129Z,3.30
2017-12-11T18:23:56.358Z,3.40
2017-12-11T18:26:24.598Z,3.40
2017-12-11T18:28:53.608Z,3.50
2017-12-11T18:31:22.126Z,3.50
2017-12-11T18:33:51.095Z,3.70
2017-12-11T18:36:19.349Z,3.60
2017-12-11T18:38:48.445Z,3.80
2017-12-11T18:41:16.638Z,3.80
2017-12-11T18:43:44.908Z,3.90
2017-12-11T18:46:13.134Z,3.90
2017-12-11T18:48:41.376Z,3.90
2017-12-11T18:51:09.678Z,3.90
2017-12-11T18:53:37.935Z,3.90
2017-12-11T18:56:06.155Z,3.80
2017-12-11T18:58:34.378Z,3.80
2017-12-11T19:01:02.591Z,3.80
2017-12-11T19:03:31.150Z,3.80
2017-12-11T19:05:59.383Z,3.80
2017-12-11T19:08:28.370Z,3.90
2017-12-11T19:10:57.357Z,3.90
2017-12-11T19:13:26.343Z,4.00
2017-12-11T19:15:55.341Z,4.00
2017-12-11T19:18:24.327Z,4.00
2017-12-11T19:20:53.646Z,4.00
2017-12-11T19:23:21.850Z,4.00
2017-12-11T19:25:50.098Z,4.00
2017-12-11T19:28:18.357Z,4.00
2017-12-11T19:30:46.567Z,4.10
2017-12-11T19:33:14.802Z,4.10
2017-12-11T19:35:43.035Z,4.10
2017-12-11T19:38:11.254Z,4.10
2017-12-11T19:40:40.248Z,4.20
2017-12-11T19:43:09.240Z,4.20
2017-12-11T19:45:37.491Z,4.20
2017-12-11T19:48:06.520Z,4.30
2017-12-11T19:50:34.775Z,4.20
2017-12-11T19:53:03.013Z,4.30
2017-12-11T19:55:31.254Z,4.40
2017-12-11T19:57:59.498Z,4.40
2017-12-11T20:00:28.507Z,4.50
2017-12-11T20:02:57.507Z,4.50
2017-12-11T20:05:25.752Z,4.40
2017-12-11T20:07:54.763Z,4.60
2017-12-11T20:10:23.955Z,4.50
2017-12-11T20:12:53.005Z,4.60
2017-12-11T20:15:21.330Z,4.60
2017-12-11T20:17:49.533Z,4.70
2017-12-11T20:20:18.562Z,4.70
2017-12-11T20:22:56.032Z,4.60
2017-12-11T20:25:24.260Z,4.80
2017-12-11T20:27:53.256Z,4.90
2017-12-11T20:30:21.510Z,4.80
2017-12-11T20:32:50.606Z,4.90
2017-12-11T20:35:19.699Z,5.00
2017-12-11T20:37:47.908Z,5.00
2017-12-11T20:40:16.362Z,5.10
2017-12-11T20:42:44.855Z,5.10
2017-12-11T20:45:13.865Z,5.20
2017-12-11T20:47:42.100Z,5.20
2017-12-11T20:50:10.353Z,5.30
2017-12-11T20:52:38.594Z,5.30
2017-12-11T20:55:06.854Z,5.40
2017-12-11T20:57:35.102Z,5.50
2017-12-11T21:00:04.251Z,5.60
2017-12-11T21:02:32.492Z,5.60
2017-12-11T21:05:00.721Z,5.70
2017-12-11T21:07:28.975Z,5.80
2017-12-11T21:09:57.402Z,5.90
2017-12-11T21:12:25.644Z,5.90
2017-12-11T21:14:53.872Z,6.00
2017-12-11T21:17:22.880Z,6.10
2017-12-11T21:19:51.102Z,6.10
2017-12-11T21:22:19.327Z,6.10
2017-12-11T21:24:48.306Z,6.30
2017-12-11T21:27:17.447Z,6.30
2017-12-11T21:29:45.676Z,6.30
2017-12-11T21:32:14.658Z,6.40
2017-12-11T21:34:42.971Z,6.40
2017-12-11T21:37:11.194Z,6.40
2017-12-11T21:39:39.438Z,6.40
2017-12-11T21:42:07.697Z,6.50
2017-12-11T21:44:35.931Z,6.50
2017-12-11T21:47:04.922Z,6.70
2017-12-11T21:49:33.158Z,6.60
2017-12-11T21:52:01.373Z,6.70
2017-12-11T21:54:29.602Z,6.70
2017-12-11T21:56:57.835Z,6.70
2017-12-11T21:59:26.086Z,6.70
2017-12-11T22:01:54.318Z,6.70
2017-12-11T22:04:22.567Z,6.70
2017-12-11T22:06:50.807Z,6.80
2017-12-11T22:09:19.044Z,6.90
2017-12-11T22:11:47.280Z,6.90
2017-12-11T22:14:16.282Z,7.10
2017-12-11T22:16:44.538Z,7.00
2017-12-11T22:19:13.541Z,7.20
2017-12-11T22:21:41.806Z,7.10
2017-12-11T22:24:10.045Z,7.20
2017-12-11T22:26:38.319Z,7.20
2017-12-11T22:29:06.860Z,7.30
2017-12-11T22:31:35.857Z,7.30
2017-12-11T22:34:04.088Z,7.30
2017-12-11T22:36:32.781Z,7.30
2017-12-11T22:39:01.897Z,7.40
2017-12-11T22:41:30.423Z,7.40
2017-12-11T22:43:58.765Z,7.40
2017-12-11T22:46:27.282Z,7.40
2017-12-11T22:48:55.679Z,7.40
2017-12-11T22:51:24.088Z,7.40
2017-12-11T22:53:53.272Z,7.50
2017-12-11T22:56:21.631Z,7.40
2017-12-11T22:58:49.883Z,7.50
2017-12-11T23:01:18.180Z,7.60
2017-12-11T23:03:46.496Z,7.70
2017-12-11T23:06:14.727Z,7.70
2017-12-11T23:08:43.007Z,7.80
2017-12-11T23:11:11.268Z,7.80
2017-12-11T23:13:39.522Z,7.80
2017-12-11T23:16:08.474Z,7.90
2017-12-11T23:18:36.698Z,7.90
2017-12-11T23:21:04.924Z,7.90
2017-12-11T23:23:33.151Z,7.90
2017-12-11T23:26:01.398Z,8.00
2017-12-11T23:28:29.634Z,8.00
2017-12-11T23:30:57.871Z,8.00
2017-12-11T23:33:26.113Z,8.10
2017-12-11T23:35:54.354Z,8.10
2017-12-11T23:38:22.583Z,8.10
2017-12-11T23:40:50.840Z,8.00
2017-12-11T23:43:19.420Z,8.00
2017-12-11T23:45:47.660Z,8.00
2017-12-11T23:48:15.907Z,8.00
2017-12-11T23:50:44.226Z,8.00
2017-12-11T23:53:12.491Z,8.00
2017-12-11T23:55:41.510Z,8.10
2017-12-11T23:58:10.542Z,8.20
